createdAt,value
2023-05-03T00:00:00.917Z,5.28
2023-05-03T00:05:06.122Z,4.74
2023-05-03T00:10:18.625Z,4.33
2023-05-03T00:15:21.927Z,5.15
2023-05-03T00:20:25.546Z,7.97
2023-05-03T00:25:28.860Z,9.66
2023-05-03T00:30:32.060Z,9.67
2023-05-03T00:35:35.374Z,7.72
2023-05-03T00:40:38.478Z,6.44
2023-05-03T00:45:42.200Z,5.59
2023-05-03T00:50:47.826Z,4.88
2023-05-03T00:55:54.243Z,4.34
2023-05-03T01:00:57.555Z,3.89
2023-05-03T01:06:16.369Z,4.54
2023-05-03T01:11:27.645Z,7.51
2023-05-03T01:16:44.728Z,9.35
2023-05-03T01:22:03.385Z,9.26
2023-05-03T01:27:06.850Z,7.12
2023-05-03T01:32:23.104Z,5.82
2023-05-03T01:37:26.585Z,4.85
2023-05-03T01:42:31.528Z,4.16
2023-05-03T01:47:34.978Z,3.73
2023-05-03T01:52:38.463Z,3.40
2023-05-03T01:57:41.792Z,3.14
2023-05-03T02:02:45.023Z,3.92
2023-05-03T02:07:48.201Z,6.79
2023-05-03T02:12:51.711Z,8.46
2023-05-03T02:17:56.058Z,8.57
2023-05-03T02:22:59.456Z,6.63
2023-05-03T02:28:05.432Z,5.38
2023-05-03T02:33:08.773Z,4.54
2023-05-03T02:38:12.271Z,3.92
2023-05-03T02:43:15.466Z,3.43
2023-05-03T02:48:18.674Z,3.06
2023-05-03T02:53:22.209Z,2.78
2023-05-03T02:58:25.291Z,3.53
2023-05-03T03:03:28.510Z,6.34
2023-05-03T03:08:31.916Z,8.09
2023-05-03T03:13:39.901Z,9.18
2023-05-03T03:18:43.146Z,8.93
2023-05-03T03:23:46.390Z,6.88
2023-05-03T03:28:49.473Z,5.57
2023-05-03T03:33:52.594Z,4.67
2023-05-03T03:38:56.189Z,4.00
2023-05-03T03:43:59.205Z,3.49
2023-05-03T03:49:02.393Z,3.14
2023-05-03T03:54:05.612Z,2.87
2023-05-03T03:59:08.825Z,3.67
2023-05-03T04:04:12.102Z,6.58
2023-05-03T04:09:17.544Z,8.38
2023-05-03T04:14:21.308Z,9.42
2023-05-03T04:19:26.223Z,9.10
2023-05-03T04:24:30.834Z,7.24
2023-05-03T04:29:34.108Z,6.12
2023-05-03T04:34:37.935Z,5.44
2023-05-03T04:39:41.149Z,4.98
2023-05-03T04:44:44.966Z,4.74
2023-05-03T04:49:48.171Z,4.68
2023-05-03T04:54:51.486Z,5.76
2023-05-03T04:59:55.410Z,8.72
2023-05-03T05:04:58.719Z,10.52
2023-05-03T05:10:02.301Z,11.68
2023-05-03T05:15:07.090Z,11.58
2023-05-03T05:20:12.542Z,9.80
2023-05-03T05:25:16.168Z,8.81
2023-05-03T05:30:20.010Z,8.26
2023-05-03T05:35:23.510Z,7.78
2023-05-03T05:40:27.021Z,8.48
2023-05-03T05:45:30.363Z,10.95
2023-05-03T05:50:33.845Z,11.69
2023-05-03T05:55:37.170Z,10.16
2023-05-03T06:00:40.389Z,8.95
2023-05-03T06:05:43.713Z,8.59
2023-05-03T06:10:47.200Z,10.59
2023-05-03T06:15:50.298Z,12.32
2023-05-03T06:20:53.421Z,12.44
2023-05-03T06:25:56.629Z,10.89
2023-05-03T06:30:59.811Z,10.00
2023-05-03T06:36:03.371Z,9.47
2023-05-03T06:41:06.487Z,9.22
2023-05-03T06:46:09.687Z,10.05
2023-05-03T06:51:12.865Z,12.48
2023-05-03T06:56:16.189Z,12.62
2023-05-03T07:01:21.003Z,11.35
2023-05-03T07:06:24.650Z,10.74
2023-05-03T07:11:28.154Z,10.41
2023-05-03T07:16:31.523Z,10.30
2023-05-03T07:21:35.610Z,10.32
2023-05-03T07:26:39.218Z,10.42
2023-05-03T07:31:44.533Z,10.60
2023-05-03T07:36:47.687Z,10.71
2023-05-03T07:41:51.101Z,10.86
2023-05-03T07:46:54.401Z,10.98
2023-05-03T07:51:58.967Z,11.06
2023-05-03T07:57:03.989Z,11.17
2023-05-03T08:02:08.326Z,11.26
2023-05-03T08:07:12.165Z,11.37
2023-05-03T08:12:15.262Z,11.51
2023-05-03T08:17:18.472Z,11.64
2023-05-03T08:22:21.787Z,11.74
2023-05-03T08:27:26.425Z,11.89
2023-05-03T08:32:30.736Z,11.97
2023-05-03T08:37:42.445Z,12.10
2023-05-03T08:42:46.615Z,12.21
2023-05-03T08:47:55.524Z,12.32
2023-05-03T08:52:59.904Z,12.36
2023-05-03T08:58:13.316Z,12.50
2023-05-03T09:03:16.965Z,12.54
2023-05-03T09:08:23.016Z,12.57
2023-05-03T09:13:34.144Z,12.64
2023-05-03T09:18:37.832Z,12.73
2023-05-03T09:23:41.673Z,12.87
2023-05-03T09:28:44.873Z,13.04
2023-05-03T09:33:47.978Z,13.27
2023-05-03T09:38:52.973Z,13.40
2023-05-03T09:43:58.984Z,13.48
2023-05-03T09:49:03.702Z,13.81
2023-05-03T09:54:07.635Z,14.18
2023-05-03T09:59:10.774Z,14.31
2023-05-03T10:04:19.858Z,14.56
2023-05-03T10:09:35.114Z,14.67
2023-05-03T10:14:42.801Z,14.78
2023-05-03T10:20:07.548Z,14.27
2023-05-03T10:25:11.789Z,13.95
2023-05-03T10:30:34.980Z,14.26
2023-05-03T10:35:49.246Z,14.30
2023-05-03T10:40:55.188Z,13.84
2023-05-03T10:46:01.542Z,13.86
2023-05-03T10:51:31.025Z,14.40
2023-05-03T10:56:34.196Z,14.13
2023-05-03T11:01:38.223Z,14.34
2023-05-03T11:06:44.139Z,14.96
2023-05-03T11:11:47.345Z,15.66
2023-05-03T11:16:52.009Z,15.70
2023-05-03T11:21:56.126Z,14.85
2023-05-03T11:26:59.384Z,14.21
2023-05-03T11:32:02.560Z,14.52
2023-05-03T11:37:09.766Z,15.05
2023-05-03T11:42:12.915Z,14.77
2023-05-03T11:47:16.474Z,14.91
2023-05-03T11:52:25.137Z,15.68
2023-05-03T11:57:28.892Z,16.30
2023-05-03T12:02:33.211Z,16.14
2023-05-03T12:07:40.960Z,15.48
2023-05-03T12:13:00.493Z,14.89
2023-05-03T12:18:13.523Z,14.59
2023-05-03T12:23:17.956Z,14.34
2023-05-03T12:28:21.950Z,14.14
2023-05-03T12:33:28.193Z,14.03
2023-05-03T12:38:32.062Z,13.93
2023-05-03T12:43:36.698Z,13.99
2023-05-03T12:48:40.179Z,14.33
2023-05-03T12:53:47.069Z,14.61
2023-05-03T12:59:18.243Z,14.76
2023-05-03T13:09:28.008Z,14.60
2023-05-03T13:14:43.058Z,14.86
2023-05-03T13:19:50.146Z,15.39
2023-05-03T13:24:53.273Z,15.65
2023-05-03T13:29:56.660Z,15.55
2023-05-03T13:34:59.864Z,15.34
2023-05-03T13:40:03.176Z,15.51
2023-05-03T13:45:07.934Z,16.50
2023-05-03T13:50:11.954Z,17.27
2023-05-03T13:55:15.052Z,17.77
2023-05-03T14:00:21.029Z,17.99
2023-05-03T14:05:24.366Z,18.38
2023-05-03T14:10:27.813Z,18.42
2023-05-03T14:15:31.623Z,17.69
2023-05-03T14:20:35.920Z,16.71
2023-05-03T14:25:39.157Z,15.93
2023-05-03T14:30:42.549Z,15.45
2023-05-03T14:35:45.844Z,15.32
2023-05-03T14:40:50.407Z,15.64
2023-05-03T14:45:53.520Z,16.49
2023-05-03T14:50:56.805Z,16.71
2023-05-03T14:56:00.279Z,16.79
2023-05-03T15:01:03.645Z,16.69
2023-05-03T15:06:07.907Z,17.43
2023-05-03T15:11:11.490Z,18.22
2023-05-03T15:16:14.855Z,18.57
2023-05-03T15:21:22.392Z,18.53
2023-05-03T15:26:25.624Z,18.60
2023-05-03T15:31:28.974Z,19.02
2023-05-03T15:36:36.859Z,19.26
2023-05-03T15:41:40.176Z,18.78
2023-05-03T15:46:44.550Z,18.77
2023-05-03T15:51:47.819Z,18.85
2023-05-03T15:56:53.785Z,18.86
2023-05-03T16:01:58.057Z,18.66
2023-05-03T16:07:03.500Z,18.52
2023-05-03T16:12:07.615Z,18.74
2023-05-03T16:17:11.033Z,18.92
2023-05-03T16:22:14.374Z,19.21
2023-05-03T16:27:17.472Z,19.12
2023-05-03T16:32:21.052Z,19.18
2023-05-03T16:37:24.173Z,19.33
2023-05-03T16:42:27.371Z,19.16
2023-05-03T16:47:30.810Z,19.09
2023-05-03T16:52:39.564Z,19.08
2023-05-03T16:57:42.854Z,18.96
2023-05-03T17:02:46.321Z,18.83
2023-05-03T17:07:49.777Z,18.73
2023-05-03T17:12:54.953Z,18.43
2023-05-03T17:17:58.248Z,17.82
2023-05-03T17:23:02.107Z,17.18
2023-05-03T17:28:05.358Z,16.56
2023-05-03T17:33:08.572Z,15.89
2023-05-03T17:38:12.229Z,15.34
2023-05-03T17:43:18.719Z,14.96
2023-05-03T17:48:22.025Z,14.57
2023-05-03T17:53:25.188Z,14.42
2023-05-03T17:58:28.603Z,14.35
2023-05-03T18:03:34.258Z,14.19
2023-05-03T18:08:38.041Z,13.82
2023-05-03T18:13:41.827Z,13.32
2023-05-03T18:18:45.025Z,12.91
2023-05-03T18:23:48.229Z,12.59
2023-05-03T18:28:53.622Z,12.28
2023-05-03T18:33:57.104Z,12.02
2023-05-03T18:39:00.321Z,11.81
2023-05-03T18:44:04.649Z,11.66
2023-05-03T18:49:09.901Z,11.58
2023-05-03T18:54:13.217Z,11.50
2023-05-03T18:59:16.335Z,11.26
2023-05-03T19:04:20.096Z,10.99
2023-05-03T19:09:23.483Z,10.75
2023-05-03T19:14:26.913Z,10.51
2023-05-03T19:19:30.187Z,10.34
2023-05-03T19:24:33.431Z,10.20
2023-05-03T19:29:36.816Z,10.10
2023-05-03T19:34:39.939Z,10.04
2023-05-03T19:39:43.539Z,9.98
2023-05-03T19:44:46.772Z,9.94
2023-05-03T19:49:49.949Z,9.90
2023-05-03T19:54:53.370Z,9.82
2023-05-03T19:59:56.682Z,9.74
2023-05-03T20:05:00.141Z,9.67
2023-05-03T20:10:04.057Z,9.58
2023-05-03T20:15:08.862Z,9.51
2023-05-03T20:20:13.400Z,9.45
2023-05-03T20:25:21.587Z,9.34
2023-05-03T20:30:25.530Z,9.18
2023-05-03T20:35:28.774Z,9.05
2023-05-03T20:40:35.974Z,8.89
2023-05-03T20:45:39.242Z,8.75
2023-05-03T20:50:44.124Z,8.65
2023-05-03T20:55:47.363Z,8.51
2023-05-03T21:00:56.954Z,8.37
2023-05-03T21:06:01.432Z,8.21
2023-05-03T21:11:04.540Z,7.93
2023-05-03T21:16:09.559Z,7.65
2023-05-03T21:21:12.993Z,7.51
2023-05-03T21:26:16.346Z,7.41
2023-05-03T21:31:19.553Z,7.33
2023-05-03T21:36:23.335Z,7.29
2023-05-03T21:41:27.166Z,7.27
2023-05-03T21:46:30.325Z,7.23
2023-05-03T21:51:33.483Z,7.18
2023-05-03T21:56:36.734Z,7.16
2023-05-03T22:01:40.728Z,7.13
2023-05-03T22:06:44.637Z,7.11
2023-05-03T22:11:48.277Z,7.12
2023-05-03T22:16:51.676Z,7.12
2023-05-03T22:21:54.895Z,7.07
2023-05-03T22:26:59.520Z,6.98
2023-05-03T22:32:03.208Z,6.87
2023-05-03T22:37:06.562Z,6.75
2023-05-03T22:42:09.761Z,6.65
2023-05-03T22:47:13.091Z,6.59
2023-05-03T22:52:16.336Z,6.43
2023-05-03T22:57:21.389Z,6.20
2023-05-03T23:02:24.668Z,7.03
2023-05-03T23:07:28.468Z,9.64
2023-05-03T23:12:31.862Z,11.07
2023-05-03T23:17:35.261Z,11.05
2023-05-03T23:22:41.173Z,9.21
2023-05-03T23:27:44.379Z,7.87
2023-05-03T23:32:48.269Z,6.98
2023-05-03T23:37:52.141Z,6.39
2023-05-03T23:42:55.662Z,5.94
2023-05-03T23:47:58.900Z,5.66
2023-05-03T23:53:03.849Z,5.45
2023-05-03T23:58:07.113Z,5.26
